createdAt,value
2019-03-12T00:00:55.614Z,0.70
2019-03-12T00:03:21.579Z,0.97
2019-03-12T00:05:47.564Z,1.43
2019-03-12T00:08:14.265Z,0.60
2019-03-12T00:10:40.246Z,0.57
2019-03-12T00:13:06.215Z,1.37
2019-03-12T00:15:32.198Z,0.60
2019-03-12T00:17:58.161Z,0.90
2019-03-12T00:20:24.148Z,0.97
2019-03-12T00:22:50.107Z,0.87
2019-03-12T00:25:16.129Z,0.97
2019-03-12T00:27:42.084Z,0.90
2019-03-12T00:30:08.853Z,1.00
2019-03-12T00:32:34.838Z,1.60
2019-03-12T00:35:00.812Z,0.50
2019-03-12T00:37:26.764Z,0.63
2019-03-12T00:39:52.726Z,0.83
2019-03-12T00:42:18.705Z,1.17
2019-03-12T00:44:44.687Z,0.60
2019-03-12T00:47:10.671Z,0.93
2019-03-12T00:49:37.357Z,0.43
2019-03-12T00:52:03.348Z,0.80
2019-03-12T00:54:30.046Z,0.70
2019-03-12T00:56:56.026Z,0.57
2019-03-12T00:59:21.988Z,0.80
2019-03-12T01:01:47.982Z,0.57
2019-03-12T01:04:13.951Z,1.13
2019-03-12T01:06:39.931Z,0.70
2019-03-12T01:09:05.885Z,0.87
2019-03-12T01:11:31.866Z,0.90
2019-03-12T01:13:57.829Z,1.03
2019-03-12T01:16:23.796Z,0.93
2019-03-12T01:18:50.511Z,1.07
2019-03-12T01:21:16.463Z,0.70
2019-03-12T01:23:43.177Z,0.87
2019-03-12T01:26:09.130Z,0.57
2019-03-12T01:28:35.860Z,0.90
2019-03-12T01:31:02.542Z,1.30
2019-03-12T01:33:28.521Z,1.10
2019-03-12T01:35:55.214Z,1.00
2019-03-12T01:38:21.184Z,0.60
2019-03-12T01:40:47.875Z,1.07
2019-03-12T01:43:13.864Z,1.27
2019-03-12T01:45:39.805Z,0.60
2019-03-12T01:48:05.792Z,1.13
2019-03-12T01:50:32.508Z,0.90
2019-03-12T01:52:58.504Z,0.80
2019-03-12T01:55:24.476Z,0.70
2019-03-12T01:57:51.209Z,1.17
2019-03-12T02:00:17.900Z,0.80
2019-03-12T02:02:43.847Z,1.37
2019-03-12T02:05:09.822Z,0.63
2019-03-12T02:07:35.769Z,0.70
2019-03-12T02:10:01.740Z,0.67
2019-03-12T02:12:28.430Z,1.00
2019-03-12T02:14:54.425Z,1.00
2019-03-12T02:17:20.394Z,0.90
2019-03-12T02:19:46.372Z,1.07
2019-03-12T02:22:12.348Z,0.97
2019-03-12T02:24:51.598Z,0.57
2019-03-12T02:27:05.093Z,1.20
2019-03-12T02:29:31.088Z,0.90
2019-03-12T02:31:57.079Z,1.20
2019-03-12T02:34:23.085Z,1.63
2019-03-12T02:36:49.043Z,1.00
2019-03-12T02:39:15.016Z,1.33
2019-03-12T02:41:40.987Z,1.07
2019-03-12T02:44:06.955Z,0.90
2019-03-12T02:46:32.935Z,0.87
2019-03-12T02:48:58.891Z,1.33
2019-03-12T02:51:24.861Z,0.83
2019-03-12T02:53:51.567Z,1.27
2019-03-12T02:56:17.556Z,0.90
2019-03-12T02:58:43.509Z,1.37
2019-03-12T03:01:09.498Z,1.10
2019-03-12T03:03:35.478Z,1.30
2019-03-12T03:06:01.475Z,0.60
2019-03-12T03:08:27.654Z,0.83
2019-03-12T03:10:54.247Z,0.93
2019-03-12T03:13:20.203Z,1.07
2019-03-12T03:15:46.938Z,1.10
2019-03-12T03:18:13.650Z,0.60
2019-03-12T03:20:39.620Z,1.13
2019-03-12T03:23:05.570Z,1.10
2019-03-12T03:25:31.533Z,1.10
2019-03-12T03:27:57.518Z,1.00
2019-03-12T03:30:23.471Z,0.90
2019-03-12T03:32:49.528Z,1.50
2019-03-12T03:35:15.498Z,1.33
2019-03-12T03:37:42.257Z,1.07
2019-03-12T03:40:08.206Z,1.20
2019-03-12T03:42:34.928Z,1.37
2019-03-12T03:45:00.882Z,0.90
2019-03-12T03:47:26.875Z,1.20
2019-03-12T03:49:52.829Z,1.60
2019-03-12T03:52:18.821Z,1.50
2019-03-12T03:54:45.514Z,1.50
2019-03-12T03:57:11.510Z,1.90
2019-03-12T03:59:37.467Z,1.50
2019-03-12T04:02:03.472Z,1.63
2019-03-12T04:04:29.437Z,1.50
2019-03-12T04:06:55.395Z,1.70
2019-03-12T04:09:21.395Z,1.70
2019-03-12T04:11:48.115Z,1.30
2019-03-12T04:14:14.103Z,1.80
2019-03-12T04:16:40.073Z,1.30
2019-03-12T04:19:06.839Z,1.40
2019-03-12T04:21:33.684Z,2.17
2019-03-12T04:23:59.592Z,1.53
2019-03-12T04:26:26.283Z,1.73
2019-03-12T04:28:52.266Z,1.50
2019-03-12T04:31:18.973Z,1.80
2019-03-12T04:33:44.985Z,1.43
2019-03-12T04:36:10.943Z,1.47
2019-03-12T04:38:37.645Z,1.90
2019-03-12T04:41:03.621Z,2.50
2019-03-12T04:43:29.614Z,1.87
2019-03-12T04:45:55.618Z,2.00
2019-03-12T04:48:21.583Z,2.43
2019-03-12T04:50:48.312Z,1.87
2019-03-12T04:53:14.253Z,2.00
2019-03-12T04:55:40.984Z,2.27
2019-03-12T04:58:07.660Z,2.60
2019-03-12T05:00:33.637Z,1.93
2019-03-12T05:03:00.350Z,2.37
2019-03-12T05:05:26.323Z,2.20
2019-03-12T05:07:53.022Z,3.43
2019-03-12T05:10:19.005Z,2.10
2019-03-12T05:12:44.970Z,2.50
2019-03-12T05:15:10.947Z,3.27
2019-03-12T05:17:36.922Z,2.60
2019-03-12T05:20:03.028Z,3.13
2019-03-12T05:22:28.994Z,2.63
2019-03-12T05:24:55.688Z,2.83
2019-03-12T05:27:24.749Z,4.30
2019-03-12T05:29:47.758Z,3.70
2019-03-12T05:32:13.731Z,4.43
2019-03-12T05:34:39.722Z,4.63
2019-03-12T05:37:06.447Z,3.77
2019-03-12T05:39:32.484Z,4.57
2019-03-12T05:41:59.229Z,4.70
2019-03-12T05:44:25.928Z,4.83
2019-03-12T05:46:51.925Z,4.70
2019-03-12T05:49:18.210Z,5.53
2019-03-12T05:51:45.130Z,5.07
2019-03-12T05:54:11.103Z,4.37
2019-03-12T05:56:37.078Z,4.33
2019-03-12T05:59:03.072Z,5.63
2019-03-12T06:01:29.135Z,4.80
2019-03-12T06:03:55.129Z,5.20
2019-03-12T06:06:21.101Z,4.90
2019-03-12T06:08:47.824Z,4.70
2019-03-12T06:11:13.774Z,4.93
2019-03-12T06:13:40.498Z,5.30
2019-03-12T06:16:07.214Z,5.40
2019-03-12T06:18:33.191Z,4.30
2019-03-12T06:20:59.200Z,4.60
2019-03-12T06:23:25.184Z,5.63
2019-03-12T06:25:51.162Z,4.90
2019-03-12T06:28:17.156Z,4.07
2019-03-12T06:30:43.098Z,5.77
2019-03-12T06:33:09.064Z,5.40
2019-03-12T06:35:35.054Z,5.00
2019-03-12T06:38:01.031Z,4.03
2019-03-12T06:40:27.017Z,4.70
2019-03-12T06:42:52.982Z,4.67
2019-03-12T06:45:18.974Z,4.10
2019-03-12T06:47:46.541Z,4.60
2019-03-12T06:50:10.966Z,4.57
2019-03-12T06:52:36.942Z,4.63
2019-03-12T06:55:02.927Z,4.70
2019-03-12T06:57:28.875Z,4.10
2019-03-12T06:59:54.864Z,4.60
2019-03-12T07:02:20.837Z,4.70
2019-03-12T07:04:46.827Z,4.53
2019-03-12T07:07:12.987Z,5.17
2019-03-12T07:09:38.835Z,4.13
2019-03-12T07:12:05.596Z,4.60
2019-03-12T07:14:32.301Z,4.37
2019-03-12T07:16:58.293Z,4.97
2019-03-12T07:19:24.264Z,4.83
2019-03-12T07:21:50.246Z,4.80
2019-03-12T07:24:16.221Z,4.50
2019-03-12T07:26:42.968Z,4.10
2019-03-12T07:29:09.654Z,4.70
2019-03-12T07:31:35.630Z,4.80
2019-03-12T07:34:01.601Z,4.27
2019-03-12T07:36:27.589Z,4.43
2019-03-12T07:38:53.568Z,4.53
2019-03-12T07:41:30.402Z,5.13
2019-03-12T07:43:45.550Z,4.87
2019-03-12T07:46:11.505Z,4.70
2019-03-12T07:48:37.470Z,4.27
2019-03-12T07:51:03.443Z,4.27
2019-03-12T07:53:29.433Z,4.50
2019-03-12T07:55:56.130Z,4.30
2019-03-12T07:58:34.925Z,4.33
2019-03-12T08:00:48.145Z,3.63
2019-03-12T08:03:14.122Z,4.83
2019-03-12T08:05:40.073Z,3.57
2019-03-12T08:08:06.064Z,4.67
2019-03-12T08:10:33.849Z,5.03
2019-03-12T08:12:58.083Z,4.00
2019-03-12T08:15:24.058Z,4.47
2019-03-12T08:17:50.055Z,3.37
2019-03-12T08:20:16.032Z,3.50
2019-03-12T08:22:41.982Z,3.23
2019-03-12T08:25:07.986Z,3.90
2019-03-12T08:27:33.954Z,3.53
2019-03-12T08:30:00.695Z,3.70
2019-03-12T08:32:27.385Z,4.13
2019-03-12T08:34:53.381Z,3.03
2019-03-12T08:37:19.358Z,4.70
2019-03-12T08:39:45.347Z,3.30
2019-03-12T08:42:11.329Z,3.77
2019-03-12T08:44:41.464Z,3.20
2019-03-12T08:47:04.079Z,3.50
2019-03-12T08:49:30.094Z,3.77
2019-03-12T08:51:56.055Z,3.97
2019-03-12T08:54:22.771Z,4.50
2019-03-12T08:56:48.764Z,3.87
2019-03-12T08:59:14.730Z,3.77
2019-03-12T09:01:42.623Z,3.97
2019-03-12T09:04:06.751Z,3.37
2019-03-12T09:06:32.729Z,2.97
2019-03-12T09:08:58.702Z,3.33
2019-03-12T09:11:24.683Z,3.00
2019-03-12T09:13:52.482Z,2.77
2019-03-12T09:16:16.676Z,2.90
2019-03-12T09:18:43.381Z,2.37
2019-03-12T09:21:09.360Z,2.20
2019-03-12T09:23:36.054Z,2.70
2019-03-12T09:26:02.040Z,2.33
2019-03-12T09:28:28.000Z,2.10
2019-03-12T09:30:53.997Z,3.17
2019-03-12T09:33:19.950Z,2.53
2019-03-12T09:35:45.941Z,2.47
2019-03-12T09:38:11.919Z,2.10
2019-03-12T09:40:37.866Z,1.90
2019-03-12T09:43:03.846Z,2.10
2019-03-12T09:45:29.829Z,2.03
2019-03-12T09:47:55.822Z,2.37
2019-03-12T09:50:22.522Z,1.70
2019-03-12T09:52:48.490Z,2.23
2019-03-12T09:55:14.506Z,1.80
2019-03-12T09:57:41.239Z,2.00
2019-03-12T10:00:16.112Z,2.50
2019-03-12T10:02:33.989Z,1.57
2019-03-12T10:04:59.963Z,1.63
2019-03-12T10:07:25.959Z,1.53
2019-03-12T10:09:52.648Z,1.50
2019-03-12T10:12:18.663Z,1.67
2019-03-12T10:14:44.627Z,1.43
2019-03-12T10:17:10.580Z,1.00
2019-03-12T10:19:36.611Z,1.77
2019-03-12T10:22:02.569Z,2.07
2019-03-12T10:24:29.046Z,1.30
2019-03-12T10:26:54.583Z,1.30
2019-03-12T10:29:20.646Z,1.40
2019-03-12T10:31:46.574Z,1.10
2019-03-12T10:34:12.572Z,1.37
2019-03-12T10:36:38.545Z,1.10
2019-03-12T10:39:05.270Z,0.90
2019-03-12T10:41:31.231Z,1.07
2019-03-12T10:43:57.281Z,1.90
2019-03-12T10:46:23.268Z,1.33
2019-03-12T10:48:49.256Z,1.40
2019-03-12T10:51:15.212Z,1.43
2019-03-12T10:53:41.935Z,1.93
2019-03-12T10:56:08.629Z,1.57
2019-03-12T10:58:34.612Z,1.50
2019-03-12T11:01:01.298Z,1.23
2019-03-12T11:03:27.280Z,1.03
2019-03-12T11:05:53.981Z,1.53
2019-03-12T11:08:19.990Z,1.10
2019-03-12T11:10:45.977Z,1.53
2019-03-12T11:13:14.454Z,1.10
2019-03-12T11:15:38.723Z,1.10
2019-03-12T11:18:04.689Z,1.30
2019-03-12T11:20:30.709Z,1.23
2019-03-12T11:22:56.690Z,1.30
2019-03-12T11:25:27.738Z,1.20
2019-03-12T11:27:49.422Z,1.17
2019-03-12T11:30:15.416Z,1.23
2019-03-12T11:32:41.397Z,1.47
2019-03-12T11:35:08.100Z,1.57
2019-03-12T11:37:34.396Z,1.50
2019-03-12T11:40:01.089Z,1.70
2019-03-12T11:42:26.150Z,1.00
2019-03-12T11:44:52.219Z,1.27
2019-03-12T11:47:18.300Z,0.83
2019-03-12T11:49:44.224Z,1.20
2019-03-12T11:52:10.200Z,1.57
2019-03-12T11:54:36.256Z,0.83
2019-03-12T11:57:02.256Z,1.60
2019-03-12T11:59:28.298Z,1.30
2019-03-12T12:01:54.255Z,1.80
2019-03-12T12:04:20.251Z,1.13
2019-03-12T12:06:46.237Z,1.67
2019-03-12T12:09:13.440Z,1.20
2019-03-12T12:11:39.070Z,1.17
2019-03-12T12:14:05.049Z,1.33
2019-03-12T12:16:31.058Z,1.27
2019-03-12T12:18:57.761Z,0.97
2019-03-12T12:21:23.762Z,1.30
2019-03-12T12:23:49.719Z,1.30
2019-03-12T12:26:16.492Z,1.20
2019-03-12T12:28:42.466Z,1.17
2019-03-12T12:31:08.483Z,1.30
2019-03-12T12:33:34.439Z,1.57
2019-03-12T12:36:00.425Z,0.83
2019-03-12T12:38:26.388Z,1.40
2019-03-12T12:40:53.122Z,1.00
2019-03-12T12:43:19.856Z,1.00
2019-03-12T12:45:46.649Z,1.30
2019-03-12T12:48:12.627Z,1.40
2019-03-12T12:50:38.599Z,1.27
2019-03-12T12:53:04.566Z,1.07
2019-03-12T12:55:31.326Z,1.00
2019-03-12T12:57:58.052Z,1.30
2019-03-12T13:00:24.798Z,0.90
2019-03-12T13:02:51.505Z,1.20
2019-03-12T13:05:17.483Z,0.83
2019-03-12T13:07:43.458Z,1.43
2019-03-12T13:10:09.419Z,1.07
2019-03-12T13:12:36.135Z,1.40
2019-03-12T13:15:02.104Z,1.40
2019-03-12T13:17:28.097Z,1.50
2019-03-12T13:19:54.928Z,1.20
2019-03-12T13:22:20.855Z,1.00
2019-03-12T13:24:46.816Z,1.20
2019-03-12T13:27:12.795Z,1.17
2019-03-12T13:29:38.757Z,1.20
2019-03-12T13:32:13.326Z,1.07
2019-03-12T13:34:30.786Z,1.13
2019-03-12T13:36:56.808Z,1.03
2019-03-12T13:39:23.506Z,1.30
2019-03-12T13:41:49.556Z,1.13
2019-03-12T13:44:15.550Z,1.10
2019-03-12T13:46:41.542Z,1.10
2019-03-12T13:49:07.669Z,1.70
2019-03-12T13:51:33.566Z,1.00
2019-03-12T13:53:59.568Z,1.00
2019-03-12T13:56:26.329Z,1.30
2019-03-12T13:58:52.320Z,1.20
2019-03-12T14:01:18.302Z,0.70
2019-03-12T14:03:44.320Z,0.93
2019-03-12T14:06:10.288Z,0.97
2019-03-12T14:08:36.275Z,1.10
2019-03-12T14:11:02.333Z,1.23
2019-03-12T14:13:28.359Z,0.90
2019-03-12T14:15:54.288Z,1.23
2019-03-12T14:18:20.275Z,1.17
2019-03-12T14:20:46.241Z,1.00
2019-03-12T14:23:12.994Z,1.00
2019-03-12T14:25:39.712Z,1.03
2019-03-12T14:28:05.710Z,0.80
2019-03-12T14:30:31.671Z,1.33
2019-03-12T14:32:57.672Z,0.70
2019-03-12T14:35:23.657Z,1.23
2019-03-12T14:37:49.654Z,1.10
2019-03-12T14:40:16.348Z,1.10
2019-03-12T14:42:42.333Z,0.90
2019-03-12T14:45:08.285Z,1.20
2019-03-12T14:47:34.291Z,1.13
2019-03-12T14:50:00.397Z,1.10
2019-03-12T14:52:26.314Z,1.67
2019-03-12T14:54:52.301Z,0.80
2019-03-12T14:57:18.305Z,0.97
2019-03-12T14:59:44.288Z,1.30
2019-03-12T15:02:10.264Z,0.90
2019-03-12T15:04:36.273Z,0.83
2019-03-12T15:07:02.251Z,1.30
2019-03-12T15:09:28.243Z,0.80
2019-03-12T15:11:54.203Z,0.80
2019-03-12T15:14:20.190Z,1.03
2019-03-12T15:16:46.172Z,0.80
2019-03-12T15:19:12.159Z,1.00
2019-03-12T15:21:38.869Z,1.00
2019-03-12T15:24:04.870Z,0.60
2019-03-12T15:26:30.828Z,0.87
2019-03-12T15:28:57.554Z,0.60
2019-03-12T15:31:23.530Z,0.83
2019-03-12T15:33:49.515Z,0.93
2019-03-12T15:36:15.487Z,0.90
2019-03-12T15:38:41.492Z,1.00
2019-03-12T15:41:07.479Z,0.70
2019-03-12T15:43:33.484Z,0.77
2019-03-12T15:45:59.456Z,0.77
2019-03-12T15:48:26.010Z,0.93
2019-03-12T15:50:51.439Z,1.00
2019-03-12T15:53:17.414Z,0.80
2019-03-12T15:55:44.146Z,0.50
2019-03-12T15:58:10.881Z,0.60
2019-03-12T16:00:36.867Z,0.90
2019-03-12T16:03:02.853Z,0.80
2019-03-12T16:05:28.891Z,0.70
2019-03-12T16:08:01.816Z,0.63
2019-03-12T16:10:27.830Z,0.80
2019-03-12T16:12:53.805Z,1.00
2019-03-12T16:15:19.797Z,1.00
2019-03-12T16:17:45.764Z,1.00
2019-03-12T16:20:11.761Z,1.27
2019-03-12T16:22:38.476Z,0.93
2019-03-12T16:25:04.489Z,0.90
2019-03-12T16:27:30.431Z,0.70
2019-03-12T16:29:57.175Z,0.70
2019-03-12T16:32:23.189Z,0.80
2019-03-12T16:34:49.229Z,1.10
2019-03-12T16:37:15.939Z,0.80
2019-03-12T16:39:41.942Z,0.90
2019-03-12T16:42:07.966Z,0.87
2019-03-12T16:44:33.966Z,0.90
2019-03-12T16:46:59.970Z,1.00
2019-03-12T16:49:25.951Z,1.13
2019-03-12T16:51:51.955Z,0.80
2019-03-12T16:54:17.911Z,1.23
2019-03-12T16:56:45.526Z,1.23
2019-03-12T16:59:10.665Z,0.90
2019-03-12T17:01:36.686Z,0.93
2019-03-12T17:04:02.645Z,1.00
2019-03-12T17:06:29.425Z,0.90
2019-03-12T17:08:55.387Z,0.80
2019-03-12T17:11:21.400Z,0.73
2019-03-12T17:13:47.363Z,0.90
2019-03-12T17:16:14.133Z,1.13
2019-03-12T17:18:40.112Z,1.00
2019-03-12T17:21:06.871Z,0.90
2019-03-12T17:23:33.579Z,0.70
2019-03-12T17:25:59.584Z,1.13
2019-03-12T17:28:25.561Z,1.00
2019-03-12T17:30:52.285Z,0.97
2019-03-12T17:33:18.292Z,0.97
2019-03-12T17:35:44.302Z,0.80
2019-03-12T17:38:10.299Z,0.80
2019-03-12T17:40:36.277Z,0.87
2019-03-12T17:43:03.012Z,0.80
2019-03-12T17:45:28.999Z,0.70
2019-03-12T17:47:54.988Z,0.90
2019-03-12T17:50:20.942Z,1.23
2019-03-12T17:52:47.728Z,0.67
2019-03-12T17:55:14.421Z,1.07
2019-03-12T17:57:40.412Z,0.73
2019-03-12T18:00:06.364Z,1.00
2019-03-12T18:02:42.054Z,0.90
2019-03-12T18:04:58.389Z,0.90
2019-03-12T18:07:24.396Z,1.00
2019-03-12T18:09:51.126Z,0.60
2019-03-12T18:12:17.870Z,1.17
2019-03-12T18:14:44.616Z,0.83
2019-03-12T18:17:10.691Z,0.80
2019-03-12T18:19:36.765Z,1.00
2019-03-12T18:22:02.776Z,1.00
2019-03-12T18:24:28.755Z,0.70
2019-03-12T18:26:54.776Z,0.53
2019-03-12T18:29:20.727Z,1.00
2019-03-12T18:31:46.708Z,0.73
2019-03-12T18:34:12.688Z,0.90
2019-03-12T18:36:38.644Z,0.73
2019-03-12T18:39:04.638Z,0.80
2019-03-12T18:41:30.581Z,0.70
2019-03-12T18:43:57.345Z,0.73
2019-03-12T18:46:23.317Z,1.07
2019-03-12T18:48:49.302Z,1.00
2019-03-12T18:51:15.277Z,0.73
2019-03-12T18:53:42.000Z,0.80
2019-03-12T18:56:07.961Z,1.00
2019-03-12T18:58:33.968Z,0.77
2019-03-12T19:01:00.722Z,0.90
2019-03-12T19:03:26.761Z,1.10
2019-03-12T19:05:52.750Z,0.43
2019-03-12T19:08:19.482Z,0.60
2019-03-12T19:10:46.214Z,0.90
2019-03-12T19:13:12.228Z,0.80
2019-03-12T19:15:38.210Z,0.90
2019-03-12T19:18:04.206Z,0.90
2019-03-12T19:20:32.842Z,1.00
2019-03-12T19:22:56.264Z,0.90
2019-03-12T19:25:22.245Z,0.70
2019-03-12T19:27:59.400Z,0.90
2019-03-12T19:30:14.294Z,0.87
2019-03-12T19:32:40.275Z,0.80
2019-03-12T19:35:06.227Z,0.90
2019-03-12T19:37:32.230Z,0.67
2019-03-12T19:39:58.222Z,0.80
2019-03-12T19:42:24.933Z,0.77
2019-03-12T19:44:50.935Z,0.83
2019-03-12T19:47:17.172Z,0.90
2019-03-12T19:49:43.170Z,0.83
2019-03-12T19:52:09.135Z,0.90
2019-03-12T19:54:35.872Z,0.60
2019-03-12T19:57:01.839Z,0.80
2019-03-12T19:59:27.841Z,1.10
2019-03-12T20:01:54.554Z,0.90
2019-03-12T20:04:20.555Z,0.90
2019-03-12T20:06:46.678Z,0.77
2019-03-12T20:09:12.611Z,0.90
2019-03-12T20:11:38.612Z,0.90
2019-03-12T20:14:04.603Z,0.70
2019-03-12T20:16:30.586Z,1.07
2019-03-12T20:18:56.577Z,0.70
2019-03-12T20:21:22.566Z,0.90
2019-03-12T20:23:49.280Z,0.77
2019-03-12T20:26:15.250Z,0.83
2019-03-12T20:28:41.246Z,0.80
2019-03-12T20:31:07.947Z,1.10
2019-03-12T20:33:33.900Z,0.97
2019-03-12T20:36:00.651Z,1.00
2019-03-12T20:38:27.345Z,1.10
2019-03-12T20:40:53.329Z,1.07
2019-03-12T20:43:19.296Z,1.20
2019-03-12T20:45:45.292Z,0.90
2019-03-12T20:48:11.294Z,0.97
2019-03-12T20:50:37.301Z,1.30
2019-03-12T20:53:04.028Z,1.20
2019-03-12T20:55:30.122Z,1.07
2019-03-12T20:57:56.100Z,1.40
2019-03-12T21:00:22.100Z,1.80
2019-03-12T21:02:48.820Z,1.07
2019-03-12T21:05:14.802Z,1.20
2019-03-12T21:07:40.758Z,1.10
2019-03-12T21:10:06.767Z,1.30
2019-03-12T21:12:32.746Z,1.53
2019-03-12T21:14:59.473Z,1.37
2019-03-12T21:17:25.431Z,1.03
2019-03-12T21:19:51.407Z,1.27
2019-03-12T21:22:17.390Z,1.23
2019-03-12T21:24:43.357Z,1.30
2019-03-12T21:27:09.398Z,1.30
2019-03-12T21:29:36.111Z,1.17
2019-03-12T21:32:02.108Z,1.47
2019-03-12T21:34:28.073Z,0.93
2019-03-12T21:36:54.811Z,0.27
2019-03-12T21:39:21.512Z,0.70
2019-03-12T21:41:47.614Z,0.10
2019-03-12T21:44:13.603Z,0.30
2019-03-12T21:46:40.338Z,0.20
2019-03-12T21:49:07.065Z,0.50
2019-03-12T21:51:33.047Z,0.47
2019-03-12T21:53:59.024Z,0.73
2019-03-12T21:56:25.010Z,0.33
2019-03-12T21:58:50.974Z,0.20
2019-03-12T22:01:17.709Z,0.40
2019-03-12T22:03:44.417Z,0.50
2019-03-12T22:06:10.407Z,0.50
2019-03-12T22:08:36.366Z,0.80
2019-03-12T22:11:02.367Z,0.90
2019-03-12T22:13:28.322Z,0.70
2019-03-12T22:15:54.322Z,0.60
2019-03-12T22:18:20.285Z,0.77
2019-03-12T22:20:46.244Z,0.70
2019-03-12T22:23:12.243Z,1.03
2019-03-12T22:25:38.926Z,0.83
2019-03-12T22:28:04.898Z,0.70
2019-03-12T22:30:30.851Z,0.73
2019-03-12T22:32:56.836Z,0.40
2019-03-12T22:35:22.777Z,0.60
2019-03-12T22:37:49.522Z,0.47
2019-03-12T22:40:16.212Z,0.60
2019-03-12T22:42:42.198Z,0.50
2019-03-12T22:45:08.160Z,0.40
2019-03-12T22:47:34.186Z,0.30
2019-03-12T22:50:00.263Z,0.40
2019-03-12T22:52:26.208Z,0.20
2019-03-12T22:54:52.160Z,0.40
2019-03-12T22:57:18.136Z,0.87
2019-03-12T22:59:44.092Z,0.20
2019-03-12T23:02:10.062Z,0.23
2019-03-12T23:04:36.805Z,0.27
2019-03-12T23:07:03.525Z,0.30
2019-03-12T23:09:29.488Z,0.17
2019-03-12T23:11:55.457Z,0.30
2019-03-12T23:14:21.436Z,0.30
2019-03-12T23:16:47.373Z,0.27
2019-03-12T23:19:13.345Z,0.47
2019-03-12T23:21:39.290Z,0.30
2019-03-12T23:24:05.282Z,0.30
2019-03-12T23:26:31.253Z,0.40
2019-03-12T23:28:57.243Z,0.30
2019-03-12T23:31:23.947Z,0.67
2019-03-12T23:33:49.925Z,0.50
2019-03-12T23:36:15.880Z,0.40
2019-03-12T23:38:41.870Z,0.53
2019-03-12T23:41:07.843Z,0.40
2019-03-12T23:43:33.835Z,0.43
2019-03-12T23:45:59.809Z,0.57
2019-03-12T23:48:25.795Z,0.60
2019-03-12T23:50:51.753Z,0.40
2019-03-12T23:53:17.729Z,0.50
2019-03-12T23:55:43.960Z,0.70
2019-03-12T23:58:10.082Z,0.57
